Time;durP1;ratioP1;P1;durP2;ratioP2;P2;SDS_P1;SDS_P2;PMS_P1;PMS_P2;Temp;Humidity;BMP_temperature;BMP_pressure;BME280_temperature;BME280_humidity;BME280_pressure;Samples;Min_cycle;Max_cycle;Signal;HPM_P1;HPM_P2
2023/10/26 00:01:07;;;;;;;17.10;7.65;;;;;;;16.05;82.24;94049.19;5015631;28;20521;-71
2023/10/26 00:03:43;;;;;;;22.13;7.30;;;;;;;16.00;83.21;94049.63;5015242;28;20202;-71
2023/10/26 00:06:09;;;;;;;22.70;6.90;;;;;;;15.99;83.12;94038.94;5016429;28;20183;-71
2023/10/26 00:08:38;;;;;;;20.77;6.43;;;;;;;15.96;82.92;94067.56;5015641;28;20222;-71
2023/10/26 00:11:05;;;;;;;19.30;5.82;;;;;;;15.95;83.32;94066.78;5015565;28;20195;-71
2023/10/26 00:13:33;;;;;;;14.45;5.55;;;;;;;15.93;83.25;94037.78;5014707;28;20214;-71
2023/10/26 00:15:59;;;;;;;13.80;5.32;;;;;;;15.86;83.03;94072.78;5014839;28;20642;-71
2023/10/26 00:18:27;;;;;;;16.73;5.32;;;;;;;15.86;83.14;94047.78;5015601;28;20176;-71
2023/10/26 00:21:10;;;;;;;18.92;6.10;;;;;;;15.86;83.02;94049.75;5015194;28;20202;-71
2023/10/26 00:23:39;;;;;;;14.77;5.95;;;;;;;15.84;83.65;94039.06;5015047;28;20210;-70
2023/10/26 00:26:05;;;;;;;16.17;5.22;;;;;;;15.84;83.49;94032.72;5015868;28;20188;-70
2023/10/26 00:28:34;;;;;;;20.92;6.10;;;;;;;15.80;83.87;94045.88;5015600;28;20234;-70
2023/10/26 00:31:02;;;;;;;17.25;5.55;;;;;;;15.76;84.43;94040.34;5017083;28;20214;-70
2023/10/26 00:33:30;;;;;;;21.02;6.03;;;;;;;15.76;84.40;94032.00;5021382;28;20213;-70
2023/10/26 00:35:57;;;;;;;18.48;5.60;;;;;;;15.78;84.95;94035.16;5022039;28;20187;-71
2023/10/26 00:38:27;;;;;;;15.55;5.25;;;;;;;15.77;85.22;94030.00;5021983;28;20194;-71
2023/10/26 00:40:53;;;;;;;21.15;5.65;;;;;;;15.74;85.72;94047.50;5021698;28;20191;-71
2023/10/26 00:43:22;;;;;;;16.00;5.90;;;;;;;15.72;85.38;94044.34;5021980;28;20191;-72
2023/10/26 00:45:52;;;;;;;22.85;6.13;;;;;;;15.69;85.75;94039.63;5021071;28;20199;-71
2023/10/26 00:48:20;;;;;;;16.98;5.65;;;;;;;15.69;85.65;94048.75;5021915;28;20285;-72
2023/10/26 00:50:48;;;;;;;19.17;5.63;;;;;;;15.67;86.04;94062.25;5020714;28;20199;-72
2023/10/26 00:53:17;;;;;;;16.17;5.22;;;;;;;15.69;85.36;94059.88;5021335;28;20198;-72
2023/10/26 00:55:49;;;;;;;16.90;5.40;;;;;;;15.69;85.28;94048.75;5020863;28;20241;-71
2023/10/26 00:58:18;;;;;;;18.52;5.72;;;;;;;15.71;85.26;94037.97;5021157;28;20198;-71
2023/10/26 01:00:46;;;;;;;15.73;5.88;;;;;;;15.69;84.66;94045.97;5021953;28;20191;-71
2023/10/26 01:03:14;;;;;;;16.38;4.95;;;;;;;15.67;85.13;94050.34;5020921;28;20210;-71
2023/10/26 01:05:41;;;;;;;17.98;5.47;;;;;;;15.63;84.95;94053.13;5020889;28;20534;-71
2023/10/26 01:08:09;;;;;;;16.25;6.22;;;;;;;15.60;85.21;94040.03;5021394;28;20210;-71
2023/10/26 01:10:36;;;;;;;16.40;5.03;;;;;;;15.55;85.17;94041.28;5021243;28;20203;-71
2023/10/26 01:13:06;;;;;;;17.00;5.75;;;;;;;15.53;85.28;94037.31;5021411;28;20199;-71
2023/10/26 01:15:33;;;;;;;12.38;5.10;;;;;;;15.51;85.05;94048.84;5021899;28;20191;-71
2023/10/26 01:18:00;;;;;;;15.57;5.38;;;;;;;15.51;85.24;94023.06;5020842;28;20509;-71
2023/10/26 01:20:27;;;;;;;17.08;5.93;;;;;;;15.49;85.04;94022.66;5021908;28;20186;-71
2023/10/26 01:22:55;;;;;;;11.30;5.10;;;;;;;15.47;84.95;94031.44;5021237;28;20215;-71
2023/10/26 01:25:23;;;;;;;16.42;5.68;;;;;;;15.48;84.92;94026.66;5021808;28;20546;-71
2023/10/26 01:27:51;;;;;;;20.38;5.25;;;;;;;15.47;84.95;94031.44;5021476;28;20179;-71
2023/10/26 01:30:18;;;;;;;12.82;4.63;;;;;;;15.43;85.24;94040.97;5021449;28;20281;-71
2023/10/26 01:32:46;;;;;;;12.10;4.20;;;;;;;15.43;84.75;94054.88;5020602;28;20652;-71
2023/10/26 01:35:13;;;;;;;14.07;5.63;;;;;;;15.38;84.67;94045.75;5021534;28;20183;-71
2023/10/26 01:37:43;;;;;;;13.80;5.30;;;;;;;15.38;84.79;94053.31;5021750;28;20202;-71
2023/10/26 01:40:13;;;;;;;16.17;7.32;;;;;;;15.36;84.49;94028.72;5021796;28;20199;-71
2023/10/26 01:42:41;;;;;;;15.93;9.75;;;;;;;15.35;85.03;94031.91;5019095;28;20199;-71
2023/10/26 01:45:08;;;;;;;16.83;10.18;;;;;;;15.31;85.46;94040.25;5018309;28;20187;-71
2023/10/26 01:47:36;;;;;;;17.98;8.38;;;;;;;15.32;84.95;94038.28;5018461;28;20191;-71
2023/10/26 01:50:03;;;;;;;17.27;8.20;;;;;;;15.30;84.93;94030.34;5017307;28;20569;-72
2023/10/26 01:52:34;;;;;;;18.05;7.47;;;;;;;15.28;85.44;94029.19;5017568;28;20195;-72
2023/10/26 01:55:00;;;;;;;16.23;7.05;;;;;;;15.26;85.45;94039.94;5018380;28;20207;-72
2023/10/26 01:57:33;;;;;;;18.08;6.53;;;;;;;15.25;85.83;94041.91;5055682;28;20238;-70
2023/10/26 02:00:00;;;;;;;13.32;6.18;;;;;;;15.21;86.16;94041.13;5057785;28;20189;-70
2023/10/26 02:02:28;;;;;;;15.50;6.45;;;;;;;15.19;86.04;94037.19;5040343;28;20194;-70
2023/10/26 02:04:55;;;;;;;12.13;6.50;;;;;;;15.16;86.13;94039.56;5039853;28;20209;-70
2023/10/26 02:07:23;;;;;;;12.65;6.35;;;;;;;15.17;86.71;94032.03;5058150;28;20194;-70
2023/10/26 02:09:50;;;;;;;16.27;6.40;;;;;;;15.15;86.26;94029.66;5040272;28;20217;-71
2023/10/26 02:12:18;;;;;;;16.73;6.72;;;;;;;15.18;86.34;94025.31;5057624;28;20186;-71
2023/10/26 02:14:49;;;;;;;14.98;6.03;;;;;;;15.20;86.18;94036.78;5057157;28;20621;-71
2023/10/26 02:17:17;;;;;;;15.25;6.32;;;;;;;15.17;86.49;94032.81;5057159;28;20186;-71
2023/10/26 02:19:44;;;;;;;13.77;5.85;;;;;;;15.13;86.29;94032.06;5057333;28;20182;-71
2023/10/26 02:22:13;;;;;;;12.15;5.63;;;;;;;15.10;86.92;94032.88;5040087;28;20213;-72
2023/10/26 02:24:41;;;;;;;15.10;6.60;;;;;;;15.07;86.56;94042.03;5057746;28;20280;-71
2023/10/26 02:27:10;;;;;;;16.88;6.80;;;;;;;15.05;86.57;94033.31;5039488;28;20204;-71
2023/10/26 02:29:36;;;;;;;14.52;5.75;;;;;;;15.02;86.49;94030.56;5039728;28;20222;-71
2023/10/26 02:32:10;;;;;;;13.68;7.25;;;;;;;15.02;86.77;94027.78;5056966;28;20201;-71
2023/10/26 02:34:36;;;;;;;19.45;9.20;;;;;;;15.00;86.70;94022.63;5057228;28;20193;-71
2023/10/26 02:37:05;;;;;;;20.00;10.95;;;;;;;15.02;86.96;94022.22;5040108;28;20202;-71
2023/10/26 02:39:31;;;;;;;15.57;8.80;;;;;;;15.03;86.61;94009.91;5039377;28;20201;-71
2023/10/26 02:42:02;;;;;;;18.27;7.25;;;;;;;15.05;85.99;94013.09;5039904;28;20535;-71
2023/10/26 02:44:28;;;;;;;14.73;7.80;;;;;;;15.03;86.15;94009.91;5057194;28;20197;-69
2023/10/26 02:46:56;;;;;;;13.15;7.18;;;;;;;15.01;85.68;94027.00;5056823;28;20186;-69
2023/10/26 02:49:24;;;;;;;14.85;5.65;;;;;;;14.98;85.93;94018.69;5039326;28;20224;-70
2023/10/26 02:51:52;;;;;;;11.95;4.97;;;;;;;14.99;85.96;94034.91;5040105;28;20186;-70
2023/10/26 02:54:19;;;;;;;9.40;4.82;;;;;;;14.96;85.98;94021.88;5056520;28;20190;-69
2023/10/26 02:56:48;;;;;;;12.35;4.75;;;;;;;14.96;85.86;94041.31;5023007;28;20250;-69
2023/10/26 02:59:15;;;;;;;10.15;4.47;;;;;;;14.95;86.02;94020.28;5016941;28;20245;-70
2023/10/26 03:01:43;;;;;;;12.40;4.32;;;;;;;14.97;86.03;94031.78;5016394;28;20558;-72
2023/10/26 03:04:10;;;;;;;11.75;4.93;;;;;;;14.97;86.24;94047.66;5016605;28;20195;-71
2023/10/26 03:06:41;;;;;;;12.75;4.68;;;;;;;14.97;86.39;94039.31;5016231;28;20218;-70
2023/10/26 03:09:09;;;;;;;8.20;3.92;;;;;;;14.98;85.72;94033.34;4999975;28;20218;-70
2023/10/26 03:11:36;;;;;;;12.32;4.47;;;;;;;14.98;85.96;94046.44;5016194;28;20195;-70
2023/10/26 03:14:04;;;;;;;12.57;4.40;;;;;;;14.99;85.55;94046.03;5016330;28;20195;-70
2023/10/26 03:16:30;;;;;;;9.45;4.10;;;;;;;14.98;85.48;94038.91;5016821;28;20277;-71
2023/10/26 03:18:57;;;;;;;11.18;4.40;;;;;;;14.99;85.63;94039.69;5016283;28;20233;-71
2023/10/26 03:21:25;;;;;;;9.77;4.75;;;;;;;14.99;85.32;94031.34;5016541;28;20202;-70
2023/10/26 03:23:56;;;;;;;12.15;4.10;;;;;;;14.97;85.20;94045.66;5015564;28;20211;-70
2023/10/26 03:26:24;;;;;;;10.75;4.10;;;;;;;14.97;85.97;94026.22;5016731;28;20214;-72
2023/10/26 03:28:52;;;;;;;11.13;4.30;;;;;;;14.96;85.73;94035.75;5015680;28;20203;-72
2023/10/26 03:31:21;;;;;;;12.50;4.10;;;;;;;14.94;85.71;94021.47;5016027;28;20241;-72
2023/10/26 03:33:47;;;;;;;10.27;4.30;;;;;;;14.93;85.88;94037.34;5016361;28;20194;-72
2023/10/26 03:36:15;;;;;;;11.52;4.22;;;;;;;14.90;85.57;94013.19;5016175;28;20187;-72
2023/10/26 03:38:42;;;;;;;13.65;5.57;;;;;;;14.89;85.90;94036.59;5015953;28;20198;-72
2023/10/26 03:41:12;;;;;;;11.60;4.55;;;;;;;14.88;85.70;94015.56;5015815;28;20187;-72
2023/10/26 03:43:38;;;;;;;10.93;6.50;;;;;;;14.89;85.87;94019.94;5016110;28;20195;-72
2023/10/26 03:46:06;;;;;;;11.40;5.07;;;;;;;14.86;85.95;94022.72;5016230;28;20179;-71
2023/10/26 03:48:34;;;;;;;10.98;4.07;;;;;;;14.86;85.98;94009.63;5015105;28;20627;-71
2023/10/26 03:51:02;;;;;;;11.85;4.00;;;;;;;14.90;86.08;94015.16;5016179;28;20230;-71
2023/10/26 03:53:29;;;;;;;9.98;3.85;;;;;;;14.89;85.88;94005.25;5015296;28;20198;-71
2023/10/26 03:55:58;;;;;;;11.02;4.47;;;;;;;14.84;85.94;94003.69;5015035;28;20245;-67
2023/10/26 03:58:27;;;;;;;12.27;4.50;;;;;;;14.80;86.32;93994.59;5014688;28;20206;-67
2023/10/26 04:00:56;;;;;;;12.10;4.40;;;;;;;14.82;86.05;93988.66;5015140;28;20600;-68
2023/10/26 04:03:23;;;;;;;11.40;4.82;;;;;;;14.77;86.64;93998.19;5015832;28;20271;-68
2023/10/26 04:05:51;;;;;;;9.60;4.28;;;;;;;14.80;86.16;93991.81;5014018;28;20206;-68
2023/10/26 04:08:20;;;;;;;13.00;4.45;;;;;;;14.77;86.14;93989.06;5015200;28;20202;-68
2023/10/26 04:10:48;;;;;;;9.27;4.47;;;;;;;14.77;86.32;93987.06;5014818;28;20219;-68
2023/10/26 04:13:15;;;;;;;9.15;4.50;;;;;;;14.73;86.44;93991.84;5015991;28;20184;-68
2023/10/26 04:15:44;;;;;;;9.13;4.47;;;;;;;14.72;86.65;93984.72;5014825;28;20202;-68
2023/10/26 04:18:11;;;;;;;9.70;4.68;;;;;;;14.71;86.36;93985.94;5015637;28;20618;-68
2023/10/26 04:20:39;;;;;;;9.75;4.43;;;;;;;14.71;86.92;93988.72;5014965;28;20199;-68
2023/10/26 04:23:06;;;;;;;8.75;4.70;;;;;;;14.72;86.50;94000.59;5014954;28;20198;-68
2023/10/26 04:25:34;;;;;;;8.95;4.68;;;;;;;14.72;86.47;94001.38;5014684;28;20626;-68
2023/10/26 04:28:01;;;;;;;9.15;4.43;;;;;;;14.76;86.38;94013.25;5015659;28;20202;-68
2023/10/26 04:30:28;;;;;;;11.82;5.20;;;;;;;14.72;86.13;93998.63;5015516;28;20222;-68
2023/10/26 04:32:59;;;;;;;12.27;4.30;;;;;;;14.69;86.05;94002.19;5015475;28;20171;-68
2023/10/26 04:35:27;;;;;;;7.07;4.45;;;;;;;14.63;85.84;93989.94;5015485;28;20184;-68
2023/10/26 04:37:54;;;;;;;10.20;5.35;;;;;;;14.60;85.96;93993.53;5015371;28;20513;-68
2023/10/26 04:40:21;;;;;;;12.10;5.60;;;;;;;14.52;86.08;93997.53;5015335;28;20179;-68
2023/10/26 04:42:48;;;;;;;9.15;4.60;;;;;;;14.45;86.35;93990.00;5014781;28;20203;-68
2023/10/26 04:45:16;;;;;;;11.88;5.50;;;;;;;14.44;86.36;94005.84;5015704;28;20183;-68
2023/10/26 04:47:45;;;;;;;13.02;5.30;;;;;;;14.42;86.70;94001.91;5015517;28;20267;-68
2023/10/26 04:50:14;;;;;;;8.55;5.57;;;;;;;14.40;86.87;94002.31;5015482;28;20289;-68
2023/10/26 04:52:41;;;;;;;11.05;4.80;;;;;;;14.38;86.89;94001.16;5015256;28;20187;-68
2023/10/26 04:55:09;;;;;;;11.50;5.55;;;;;;;14.36;86.99;94001.53;5014974;28;20183;-68
2023/10/26 04:57:36;;;;;;;12.43;6.63;;;;;;;14.39;87.24;94011.81;5014131;28;20234;-68
2023/10/26 05:00:08;;;;;;;9.40;5.90;;;;;;;14.41;87.07;94012.19;5015301;28;20202;-72
2023/10/26 05:02:37;;;;;;;10.68;4.78;;;;;;;14.42;87.06;94021.34;5014563;28;20205;-68
2023/10/26 05:05:07;;;;;;;13.63;6.60;;;;;;;14.40;87.09;94018.94;5014047;28;20207;-68
2023/10/26 05:07:37;;;;;;;12.20;5.85;;;;;;;14.39;87.28;94013.81;5015136;28;20269;-70
2023/10/26 05:10:07;;;;;;;9.88;5.95;;;;;;;14.37;87.44;94010.63;5014193;28;20226;-71
2023/10/26 05:12:34;;;;;;;13.02;6.05;;;;;;;14.38;87.30;94013.03;5014834;28;20206;-71
2023/10/26 05:15:02;;;;;;;12.63;5.50;;;;;;;14.41;87.53;94017.75;5015119;28;20199;-70
2023/10/26 05:17:28;;;;;;;9.70;5.55;;;;;;;14.46;87.46;94022.09;5015073;28;20191;-70
2023/10/26 05:19:59;;;;;;;14.57;5.75;;;;;;;14.48;87.48;94041.09;5018609;28;20520;-70
2023/10/26 05:22:26;;;;;;;13.40;5.90;;;;;;;14.50;87.17;94042.31;5019066;28;20187;-70
2023/10/26 05:24:59;;;;;;;11.68;5.50;;;;;;;14.53;86.97;94040.75;5018104;28;20587;-71
2023/10/26 05:27:26;;;;;;;11.00;5.75;;;;;;;14.51;86.67;94052.22;5018666;28;20206;-70
2023/10/26 05:29:55;;;;;;;11.98;5.88;;;;;;;14.47;87.02;94050.63;5018155;28;20223;-70
2023/10/26 05:32:22;;;;;;;11.38;5.80;;;;;;;14.50;87.04;94060.97;5017302;28;20195;-70
2023/10/26 05:34:52;;;;;;;15.98;5.60;;;;;;;14.51;87.43;94046.69;5018588;28;20203;-70
2023/10/26 05:37:19;;;;;;;12.23;5.90;;;;;;;14.53;87.62;94044.31;5018179;28;20203;-70
2023/10/26 05:39:47;;;;;;;11.35;5.55;;;;;;;14.55;87.43;94058.53;5018759;28;20202;-70
2023/10/26 05:42:17;;;;;;;10.98;5.63;;;;;;;14.56;87.67;94046.28;5018190;28;20190;-70
2023/10/26 05:44:45;;;;;;;12.27;5.40;;;;;;;14.58;87.76;94054.97;5018006;28;20191;-70
2023/10/26 05:47:12;;;;;;;11.15;5.70;;;;;;;14.62;87.91;94055.75;5018450;28;20191;-71
2023/10/26 05:49:39;;;;;;;14.52;5.80;;;;;;;14.64;87.44;94058.91;5018430;28;20325;-69
2023/10/26 05:52:08;;;;;;;11.45;5.30;;;;;;;14.70;87.49;94062.03;5017282;28;20199;-69
2023/10/26 05:54:39;;;;;;;11.77;5.47;;;;;;;14.77;87.23;94072.31;5018182;28;20198;-70
2023/10/26 05:57:06;;;;;;;11.18;5.40;;;;;;;14.80;86.97;94075.09;5048567;28;20237;-70
2023/10/26 05:59:35;;;;;;;10.70;6.28;;;;;;;14.85;86.69;94077.47;5057416;28;20590;-70
2023/10/26 06:02:02;;;;;;;10.45;5.88;;;;;;;14.87;86.57;94090.94;5057732;28;20508;-70
2023/10/26 06:04:30;;;;;;;14.00;6.20;;;;;;;14.88;86.23;94079.41;5057712;28;20202;-69
2023/10/26 06:06:57;;;;;;;14.73;6.28;;;;;;;14.91;86.39;94098.03;5057696;28;20178;-69
2023/10/26 06:09:27;;;;;;;9.48;5.20;;;;;;;14.92;86.70;94096.03;5039924;28;20620;-70
2023/10/26 06:11:53;;;;;;;13.48;5.95;;;;;;;14.96;86.60;94093.25;5040493;28;20205;-70
2023/10/26 06:14:22;;;;;;;8.98;5.32;;;;;;;14.97;86.76;94092.88;5040263;28;20198;-69
2023/10/26 06:16:50;;;;;;;11.25;5.85;;;;;;;14.98;86.52;94091.66;5057481;28;20195;-70
2023/10/26 06:19:18;;;;;;;10.90;4.95;;;;;;;15.02;86.30;94086.09;5040146;28;20208;-70
2023/10/26 06:21:45;;;;;;;11.00;5.80;;;;;;;15.01;86.19;94076.97;5057378;28;20209;-70
2023/10/26 06:24:13;;;;;;;27.13;24.35;;;;;;;15.03;86.33;94087.66;5040359;28;20194;-70
2023/10/26 06:26:39;;;;;;;39.80;36.03;;;;;;;15.03;85.57;94087.66;5039456;28;20205;-71
2023/10/26 06:29:07;;;;;;;33.08;29.85;;;;;;;15.03;85.66;94079.31;5057291;28;20198;-69
2023/10/26 06:31:35;;;;;;;32.58;29.35;;;;;;;15.06;85.59;94082.09;5039289;28;20216;-68
2023/10/26 06:34:04;;;;;;;24.88;22.20;;;;;;;15.08;85.70;94081.69;5057153;28;20190;-68
2023/10/26 06:36:31;;;;;;;22.88;17.50;;;;;;;15.11;85.39;94092.00;5040123;28;20198;-69
2023/10/26 06:39:02;;;;;;;24.25;19.17;;;;;;;15.14;85.46;94088.38;5057280;28;20232;-68
2023/10/26 06:41:29;;;;;;;33.65;27.90;;;;;;;15.16;85.80;94097.91;5057006;28;20198;-68
2023/10/26 06:43:56;;;;;;;18.33;13.63;;;;;;;15.19;85.88;94092.75;5056730;28;20524;-68
2023/10/26 06:46:23;;;;;;;17.20;10.43;;;;;;;15.19;85.13;94089.97;5057001;28;20186;-68
2023/10/26 06:48:51;;;;;;;17.08;11.40;;;;;;;15.20;85.42;94091.53;5039249;28;20204;-69
2023/10/26 06:51:19;;;;;;;18.33;11.48;;;;;;;15.21;85.27;94095.88;5039559;28;20213;-68
2023/10/26 06:53:47;;;;;;;17.88;11.30;;;;;;;15.24;85.39;94093.09;5039958;28;20216;-68
2023/10/26 06:56:14;;;;;;;15.63;10.50;;;;;;;15.25;85.04;94103.03;5027954;28;20235;-69
2023/10/26 06:58:43;;;;;;;13.88;10.35;;;;;;;15.25;84.91;94096.66;5016074;28;20199;-68
2023/10/26 07:01:10;;;;;;;21.98;18.33;;;;;;;15.23;85.20;94099.06;5016868;28;20195;-68
2023/10/26 07:03:39;;;;;;;79.50;72.03;;;;;;;15.25;85.20;94096.66;5016835;28;20194;-68
2023/10/26 07:06:06;;;;;;;81.10;73.82;;;;;;;15.25;84.93;94111.34;5016757;28;20281;-68
2023/10/26 07:08:36;;;;;;;59.20;53.22;;;;;;;15.29;84.99;94111.34;5016762;28;20199;-68
2023/10/26 07:11:06;;;;;;;44.53;39.72;;;;;;;15.33;85.24;94101.00;5016850;28;20214;-68
2023/10/26 07:13:34;;;;;;;42.42;38.00;;;;;;;15.37;85.46;94096.97;5016332;28;20237;-68
2023/10/26 07:16:02;;;;;;;25.13;22.48;;;;;;;15.43;85.44;94094.53;5016644;28;20273;-68
2023/10/26 07:18:31;;;;;;;22.73;17.90;;;;;;;15.51;85.48;94104.44;5016314;28;20623;-68
2023/10/26 07:20:58;;;;;;;20.60;13.65;;;;;;;15.60;84.51;94106.75;5016859;28;20183;-68
2023/10/26 07:23:26;;;;;;;13.32;8.27;;;;;;;15.73;82.65;94095.97;5016403;28;20183;-68
2023/10/26 07:25:56;;;;;;;9.80;5.05;;;;;;;15.92;81.33;94105.72;5016502;28;20187;-71
2023/10/26 07:28:23;;;;;;;7.22;4.75;;;;;;;16.05;80.09;94092.88;5015885;28;20528;-70
2023/10/26 07:30:53;;;;;;;13.70;4.90;;;;;;;16.14;79.23;94082.09;5016239;28;20207;-68
2023/10/26 07:33:23;;;;;;;15.50;5.70;;;;;;;16.26;78.56;94072.41;5015490;28;20199;-68
2023/10/26 07:35:50;;;;;;;14.13;5.93;;;;;;;16.33;79.04;94080.69;5016029;28;20556;-68
2023/10/26 07:38:18;;;;;;;11.52;5.57;;;;;;;16.39;79.03;94084.59;5015805;28;20604;-68
2023/10/26 07:40:49;;;;;;;37.38;8.20;;;;;;;16.44;78.40;94075.00;5015438;28;20206;-67
2023/10/26 07:43:18;;;;;;;14.55;8.43;;;;;;;16.47;78.66;94088.09;5015968;28;20630;-68
2023/10/26 07:45:51;;;;;;;17.08;7.90;;;;;;;16.51;79.77;94094.41;5016239;28;20198;-68
2023/10/26 07:48:19;;;;;;;14.88;8.50;;;;;;;16.49;79.46;94074.56;5015740;28;20199;-68
2023/10/26 07:50:46;;;;;;;17.83;7.97;;;;;;;16.48;79.09;94082.09;5016035;28;20222;-68
2023/10/26 07:53:15;;;;;;;13.90;6.97;;;;;;;16.51;78.70;94080.50;5015868;28;20202;-68
2023/10/26 07:55:43;;;;;;;16.48;6.93;;;;;;;16.55;78.46;94078.47;5014702;28;20239;-68
2023/10/26 07:58:12;;;;;;;12.73;5.68;;;;;;;16.57;76.19;94076.84;5016055;28;20261;-68
2023/10/26 08:00:44;;;;;;;8.50;3.78;;;;;;;16.68;72.08;94070.38;5016032;28;20199;-68
2023/10/26 08:03:12;;;;;;;9.50;3.78;;;;;;;16.78;70.52;94070.28;5015256;28;20230;-68
2023/10/26 08:05:39;;;;;;;10.75;2.97;;;;;;;16.90;67.51;94074.50;5015828;28;20202;-71
2023/10/26 08:08:07;;;;;;;6.35;2.90;;;;;;;17.03;67.13;94074.72;5015889;28;20614;-70
2023/10/26 08:10:37;;;;;;;7.90;3.50;;;;;;;17.16;64.73;94074.94;5016210;28;20218;-70
2023/10/26 08:13:06;;;;;;;11.43;3.40;;;;;;;17.29;63.66;94070.38;5015804;28;20179;-68
2023/10/26 08:15:34;;;;;;;8.63;3.55;;;;;;;17.35;64.28;94068.69;5015168;28;20199;-69
2023/10/26 08:18:07;;;;;;;8.27;3.72;;;;;;;17.40;63.69;94053.50;5015890;28;20195;-69
2023/10/26 08:20:36;;;;;;;8.48;4.03;;;;;;;17.45;64.20;94072.53;5015394;28;20183;-69
2023/10/26 08:23:04;;;;;;;6.93;3.10;;;;;;;17.48;63.96;94063.34;5015406;28;20209;-69
2023/10/26 08:25:31;;;;;;;6.97;3.42;;;;;;;17.51;63.48;94049.34;5015375;28;20209;-69
2023/10/26 08:28:00;;;;;;;14.13;3.63;;;;;;;17.59;62.38;94063.94;5014134;28;20218;-69
2023/10/26 08:30:26;;;;;;;7.35;2.97;;;;;;;17.70;61.35;94061.00;5014997;28;20202;-69
2023/10/26 08:32:56;;;;;;;6.28;3.28;;;;;;;17.84;60.96;94062.78;5014681;28;20199;-69
2023/10/26 08:35:26;;;;;;;8.45;3.00;;;;;;;17.91;61.08;94049.50;5015026;28;20226;-69
2023/10/26 08:37:56;;;;;;;6.55;2.88;;;;;;;18.02;60.30;94038.97;5014905;28;20195;-69
2023/10/26 08:40:24;;;;;;;9.77;3.00;;;;;;;18.09;60.78;94042.84;5014877;28;20207;-69
2023/10/26 08:42:52;;;;;;;6.15;3.38;;;;;;;18.14;60.16;94039.56;5015441;28;20682;-69
2023/10/26 08:45:23;;;;;;;9.07;3.50;;;;;;;18.16;60.20;94049.06;5014803;28;20195;-69
2023/10/26 08:47:52;;;;;;;7.93;3.03;;;;;;;18.22;58.76;94038.97;5015441;28;20187;-69
2023/10/26 08:50:23;;;;;;;11.70;3.40;;;;;;;18.24;58.72;94039.34;5015289;28;20198;-69
2023/10/26 08:52:52;;;;;;;8.90;3.10;;;;;;;18.22;59.29;94036.19;5016400;28;20203;-69
2023/10/26 08:55:19;;;;;;;8.05;3.05;;;;;;;18.22;58.53;94029.81;5019025;28;20531;-69
2023/10/26 08:57:49;;;;;;;6.72;3.25;;;;;;;18.27;58.85;94004.22;5059257;28;20254;-69
2023/10/26 09:00:16;;;;;;;5.28;2.97;;;;;;;18.58;57.89;94015.97;5059468;28;20185;-69
2023/10/26 09:02:44;;;;;;;5.28;2.83;;;;;;;18.87;57.19;93999.41;5058635;28;20602;-69
2023/10/26 09:05:11;;;;;;;7.00;2.70;;;;;;;19.16;56.33;94002.38;5058847;28;20186;-69
2023/10/26 09:07:38;;;;;;;7.45;2.60;;;;;;;19.45;54.74;93993.31;5041177;28;20201;-69
2023/10/26 09:10:08;;;;;;;13.02;3.55;;;;;;;19.66;53.16;94009.59;5041209;28;20580;-70
2023/10/26 09:12:36;;;;;;;5.75;2.70;;;;;;;19.84;53.42;94000.00;5041034;28;20216;-69
2023/10/26 09:15:06;;;;;;;5.63;2.83;;;;;;;20.01;52.66;93976.38;5058266;28;20640;-69
2023/10/26 09:17:35;;;;;;;6.10;2.67;;;;;;;20.20;53.40;94014.63;5058699;28;20178;-68
2023/10/26 09:20:17;;;;;;;5.85;2.50;;;;;;;20.38;52.11;93983.34;5041365;28;20185;-69
2023/10/26 09:22:45;;;;;;;6.20;2.42;;;;;;;20.52;50.99;93976.59;5041774;28;20296;-69
2023/10/26 09:25:14;;;;;;;6.65;2.70;;;;;;;20.60;49.53;93979.97;5058511;28;20190;-69
2023/10/26 09:27:43;;;;;;;9.27;2.42;;;;;;;20.76;50.25;93979.09;5058698;28;20181;-69
2023/10/26 09:30:27;;;;;;;7.90;3.03;;;;;;;20.88;50.48;93975.56;5058218;28;20186;-69
2023/10/26 09:32:57;;;;;;;7.82;2.40;;;;;;;20.98;50.44;93968.81;5058285;28;20210;-69
2023/10/26 09:35:29;;;;;;;6.07;2.40;;;;;;;21.15;49.03;93977.94;5057986;28;20209;-69
2023/10/26 09:37:58;;;;;;;4.70;2.70;;;;;;;21.25;48.20;93962.81;5058231;28;20186;-69
2023/10/26 09:40:29;;;;;;;5.03;2.45;;;;;;;21.34;46.87;93967.75;5025480;28;20198;-69
2023/10/26 09:42:57;;;;;;;6.22;2.20;;;;;;;21.44;45.53;93957.44;5041423;28;20196;-69
2023/10/26 09:45:24;;;;;;;3.78;2.30;;;;;;;21.54;44.70;93979.53;5041384;28;20182;-69
2023/10/26 09:47:52;;;;;;;3.58;2.40;;;;;;;21.54;45.07;93984.38;5041075;28;20208;-69
2023/10/26 09:50:19;;;;;;;6.13;2.47;;;;;;;21.59;46.25;93961.34;5057988;28;20182;-69
2023/10/26 09:52:47;;;;;;;5.63;2.30;;;;;;;21.67;46.05;93979.50;5057947;28;20205;-69
2023/10/26 09:55:14;;;;;;;4.80;2.38;;;;;;;21.71;46.50;93966.13;5058223;28;20257;-69
2023/10/26 09:57:48;;;;;;;5.82;2.30;;;;;;;21.82;46.57;93952.56;5058250;28;20248;-69
2023/10/26 10:00:17;;;;;;;4.07;2.22;;;;;;;21.88;45.67;93952.75;5057843;28;20189;-69
2023/10/26 10:02:46;;;;;;;3.63;2.17;;;;;;;21.93;44.68;93973.84;5057617;28;20669;-69
2023/10/26 10:05:38;;;;;;;4.80;2.40;;;;;;;21.97;44.60;93952.84;5040220;28;20198;-69
2023/10/26 10:08:09;;;;;;;3.90;2.60;;;;;;;22.06;44.85;93944.50;5057625;28;20190;-69
2023/10/26 10:10:36;;;;;;;4.53;2.05;;;;;;;22.03;44.58;93939.78;5040465;28;20194;-69
2023/10/26 10:13:07;;;;;;;5.55;2.40;;;;;;;22.04;44.48;93940.56;5057533;28;20206;-69
2023/10/26 10:15:35;;;;;;;4.10;2.55;;;;;;;21.96;44.99;93928.03;5057523;28;20193;-69
2023/10/26 10:18:04;;;;;;;8.30;2.70;;;;;;;22.03;45.10;93936.19;5057653;28;20197;-69
2023/10/26 10:20:32;;;;;;;8.65;2.53;;;;;;;21.99;43.59;93941.16;5057816;28;20190;-69
2023/10/26 10:23:01;;;;;;;6.00;2.15;;;;;;;21.98;44.32;93936.78;5058323;28;20190;-69
2023/10/26 10:26:03;;;;;;;2.92;2.05;;;;;;;21.96;43.48;93928.81;5040070;28;20205;-69
2023/10/26 10:28:51;;;;;;;6.30;2.08;;;;;;;21.87;44.25;93923.91;5058168;28;20202;-69
2023/10/26 10:31:40;;;;;;;9.65;2.60;;;;;;;21.96;44.88;93928.03;5040810;28;20217;-69
2023/10/26 10:34:10;;;;;;;5.65;2.40;;;;;;;21.97;44.52;93913.56;5051798;28;20217;-69
2023/10/26 10:37:14;;;;;;;6.07;2.97;;;;;;;22.06;44.98;93905.19;5058112;28;20186;-69
2023/10/26 10:40:13;;;;;;;5.43;2.17;;;;;;;22.10;44.70;93907.88;5058335;28;20186;-69
2023/10/26 10:42:41;;;;;;;5.55;2.25;;;;;;;22.10;45.20;93900.22;5034254;28;20256;-69
2023/10/26 10:45:13;;;;;;;5.72;2.78;;;;;;;22.08;45.49;93908.34;5040460;28;20193;-70
2023/10/26 10:47:40;;;;;;;4.07;2.95;;;;;;;22.06;45.62;93899.56;5057521;28;20190;-71
2023/10/26 10:50:17;;;;;;;5.40;3.00;;;;;;;22.11;46.37;93901.81;5039422;28;20202;-71
2023/10/26 10:52:44;;;;;;;4.60;2.38;;;;;;;22.06;46.19;93888.34;5023284;28;20214;-70
2023/10/26 10:55:12;;;;;;;5.28;2.35;;;;;;;22.15;46.54;93886.88;5039159;28;20216;-71
2023/10/26 10:57:55;;;;;;;5.78;2.63;;;;;;;22.14;45.51;93877.66;5016518;28;20238;-70
2023/10/26 11:00:25;;;;;;;5.60;2.10;;;;;;;22.12;45.34;93871.72;5015799;28;20612;-70
2023/10/26 11:02:56;;;;;;;5.32;2.80;;;;;;;22.22;45.58;93878.19;5017188;28;20203;-70
2023/10/26 11:05:36;;;;;;;5.70;2.60;;;;;;;22.26;45.59;93868.41;5016793;28;20210;-70
2023/10/26 11:08:02;;;;;;;8.82;2.95;;;;;;;22.25;45.63;93875.25;5015823;28;20619;-70
2023/10/26 11:10:29;;;;;;;5.65;2.58;;;;;;;22.19;45.92;93884.75;5016839;28;20202;-70
2023/10/26 11:12:56;;;;;;;4.97;2.55;;;;;;;22.04;46.16;93878.81;5016867;28;20306;-70
2023/10/26 11:15:33;;;;;;;4.35;2.30;;;;;;;21.89;47.08;93886.94;5015766;28;20206;-70
2023/10/26 11:18:00;;;;;;;7.22;2.53;;;;;;;21.84;47.63;93884.72;5016711;28;20553;-70
2023/10/26 11:20:36;;;;;;;6.25;2.90;;;;;;;21.85;47.22;93887.06;5017006;28;20191;-70
2023/10/26 11:23:03;;;;;;;5.22;2.72;;;;;;;21.80;47.57;93892.50;5016561;28;20175;-69
2023/10/26 11:25:31;;;;;;;4.57;2.60;;;;;;;21.66;48.04;93884.56;5016176;28;20525;-69
2023/10/26 11:27:58;;;;;;;6.20;2.80;;;;;;;21.50;48.52;93875.06;5016630;28;20273;-70
2023/10/26 11:30:27;;;;;;;7.15;3.00;;;;;;;21.32;48.91;93884.06;5015837;28;20191;-70
2023/10/26 11:32:55;;;;;;;3.47;2.30;;;;;;;21.19;49.33;93866.44;5015610;28;20226;-70
2023/10/26 11:35:25;;;;;;;6.57;2.75;;;;;;;21.13;50.24;93868.25;5016623;28;20249;-69